Quick Links (Output Below):   Max & Min Temps   /   Climate Reports   /   Zone Forecasts
River Forecasts   /   Forestry Forecasts   /   Aviation Forecasts   /   Radars   /   Features

Terminal Aerodrome Forecast (Pine Bluff)

Pick a Site:
Arkadelphia | El Dorado | Fayetteville | Fort Smith | Harrison | Highfill | Hot Springs | Jonesboro
Little Rock | Monticello | Mountain Home | Pine Bluff | Texarkana
 Forecast 

KPBF 221734Z 2218/2318 09008KT P6SM SCT250
     FM230000 09004KT P6SM FEW100 SCT250
     FM230500 10004KT P6SM SCT100 BKN250
     FM231400 14007KT P6SM FEW050 SCT100 BKN250=


 Latest METARs (Observations) 
How to Decode METARs
21Z KPBF 222053Z AUTO 08008KT 10SM CLR 22/12 A3022 RMK AO2 SLP231
         T02220117 56015
         
20Z KPBF 221953Z AUTO 08008KT 10SM CLR 22/12 A3023 RMK AO2 SLP237
         T02170117
         
19Z KPBF 221853Z AUTO 07009KT 10SM CLR 21/12 A3025 RMK AO2 SLP241
         T02060117
         
18Z KPBF 221753Z AUTO 07005KT 10SM CLR 20/11 A3026 RMK AO2 SLP247
         T02000106 10200 20111 58011
         
17Z KPBF 221653Z AUTO 10008KT 10SM CLR 18/10 A3028 RMK AO2 SLP252
         T01830100
         
16Z KPBF 221553Z AUTO 08006KT 10SM CLR 18/09 A3029 RMK AO2 SLP257
         T01780094
         
15Z KPBF 221453Z AUTO 11009KT 10SM CLR 16/10 A3030 RMK AO2 SLP258
         T01610100 53000
         
14Z KPBF 221353Z AUTO 09011KT 10SM CLR 14/10 A3030 RMK AO2 SLP258
         T01440100
         
13Z KPBF 221253Z AUTO 06009KT 10SM CLR 12/09 A3029 RMK AO2 SLP254
         T01220094
         
12Z KPBF 221153Z AUTO 02005KT 10SM CLR 11/09 A3030 RMK AO2 SLP258
         T01110094 10111 20094 53023
         
***** Today's Observations (Above) *****


Back to Main Page
http://www.srh.noaa.gov/lzk/qfcst.php

USA.gov is the U.S. government's official web portal to all federal, state and local government web resources and services.